sensor_id;sensor_type;location;lat;lon;timestamp;temperature;humidity
36212;DHT22;22247;48.586;13.492;2022-08-21T00:00:16;17.20;99.90
36212;DHT22;22247;48.586;13.492;2022-08-21T00:02:52;17.20;99.90
36212;DHT22;22247;48.586;13.492;2022-08-21T00:05:18;17.20;99.90
36212;DHT22;22247;48.586;13.492;2022-08-21T00:07:46;17.30;99.90
36212;DHT22;22247;48.586;13.492;2022-08-21T00:10:14;17.20;99.90
36212;DHT22;22247;48.586;13.492;2022-08-21T00:12:43;17.20;99.90
36212;DHT22;22247;48.586;13.492;2022-08-21T00:15:11;16.80;99.90
36212;DHT22;22247;48.586;13.492;2022-08-21T00:17:41;17.20;99.90
36212;DHT22;22247;48.586;13.492;2022-08-21T00:20:09;17.20;99.90
36212;DHT22;22247;48.586;13.492;2022-08-21T00:22:36;17.30;99.90
36212;DHT22;22247;48.586;13.492;2022-08-21T00:25:04;17.50;99.90
36212;DHT22;22247;48.586;13.492;2022-08-21T00:27:31;17.20;99.90
36212;DHT22;22247;48.586;13.492;2022-08-21T00:30:01;17.20;99.90
36212;DHT22;22247;48.586;13.492;2022-08-21T00:32:27;17.30;99.90
36212;DHT22;22247;48.586;13.492;2022-08-21T00:34:55;17.30;99.90
36212;DHT22;22247;48.586;13.492;2022-08-21T00:37:23;17.50;99.90
36212;DHT22;22247;48.586;13.492;2022-08-21T00:39:49;17.20;99.90
36212;DHT22;22247;48.586;13.492;2022-08-21T00:42:15;17.30;99.90
36212;DHT22;22247;48.586;13.492;2022-08-21T00:44:44;17.50;99.90
36212;DHT22;22247;48.586;13.492;2022-08-21T00:47:11;17.20;99.90
36212;DHT22;22247;48.586;13.492;2022-08-21T00:49:42;17.20;99.90
36212;DHT22;22247;48.586;13.492;2022-08-21T00:52:11;17.20;99.90
36212;DHT22;22247;48.586;13.492;2022-08-21T00:54:39;17.20;99.90
36212;DHT22;22247;48.586;13.492;2022-08-21T00:57:13;17.20;99.90
36212;DHT22;22247;48.586;13.492;2022-08-21T00:59:44;16.80;99.90
36212;DHT22;22247;48.586;13.492;2022-08-21T01:02:11;17.20;99.90
36212;DHT22;22247;48.586;13.492;2022-08-21T01:04:40;17.50;99.90
36212;DHT22;22247;48.586;13.492;2022-08-21T01:12:00;17.20;99.90
36212;DHT22;22247;48.586;13.492;2022-08-21T01:14:29;17.20;99.90
36212;DHT22;22247;48.586;13.492;2022-08-21T01:16:56;17.20;99.90
36212;DHT22;22247;48.586;13.492;2022-08-21T01:19:28;17.20;99.90
36212;DHT22;22247;48.586;13.492;2022-08-21T01:21:54;17.30;99.90
36212;DHT22;22247;48.586;13.492;2022-08-21T01:24:21;17.10;99.90
36212;DHT22;22247;48.586;13.492;2022-08-21T01:26:50;17.20;99.90
36212;DHT22;22247;48.586;13.492;2022-08-21T01:29:26;17.10;99.90
36212;DHT22;22247;48.586;13.492;2022-08-21T01:31:57;17.50;99.90
36212;DHT22;22247;48.586;13.492;2022-08-21T01:34:23;17.10;99.90
36212;DHT22;22247;48.586;13.492;2022-08-21T01:36:48;17.10;99.90
36212;DHT22;22247;48.586;13.492;2022-08-21T01:39:14;17.10;99.90
36212;DHT22;22247;48.586;13.492;2022-08-21T01:41:45;17.10;99.90
36212;DHT22;22247;48.586;13.492;2022-08-21T01:44:10;17.10;99.90
36212;DHT22;22247;48.586;13.492;2022-08-21T01:46:38;17.10;99.90
36212;DHT22;22247;48.586;13.492;2022-08-21T01:49:04;17.10;99.90
36212;DHT22;22247;48.586;13.492;2022-08-21T01:51:30;17.10;99.90
36212;DHT22;22247;48.586;13.492;2022-08-21T01:53:56;16.90;99.90
36212;DHT22;22247;48.586;13.492;2022-08-21T01:58:47;17.00;99.90
36212;DHT22;22247;48.586;13.492;2022-08-21T02:01:16;17.10;99.90
36212;DHT22;22247;48.586;13.492;2022-08-21T02:03:41;17.10;99.90
36212;DHT22;22247;48.586;13.492;2022-08-21T02:06:11;17.10;99.90
36212;DHT22;22247;48.586;13.492;2022-08-21T02:08:39;17.20;99.90
36212;DHT22;22247;48.586;13.492;2022-08-21T02:11:06;17.00;99.90
36212;DHT22;22247;48.586;13.492;2022-08-21T02:15:59;17.00;99.90
36212;DHT22;22247;48.586;13.492;2022-08-21T02:18:28;17.00;99.90
36212;DHT22;22247;48.586;13.492;2022-08-21T02:20:54;17.00;99.90
36212;DHT22;22247;48.586;13.492;2022-08-21T02:23:20;17.10;99.90
36212;DHT22;22247;48.586;13.492;2022-08-21T02:25:46;17.00;99.90
36212;DHT22;22247;48.586;13.492;2022-08-21T02:28:15;17.00;99.90
36212;DHT22;22247;48.586;13.492;2022-08-21T02:30:47;17.00;99.90
36212;DHT22;22247;48.586;13.492;2022-08-21T02:33:18;17.00;99.90
36212;DHT22;22247;48.586;13.492;2022-08-21T02:35:46;16.90;99.90
36212;DHT22;22247;48.586;13.492;2022-08-21T02:38:21;16.90;99.90
36212;DHT22;22247;48.586;13.492;2022-08-21T02:40:48;16.90;99.90
36212;DHT22;22247;48.586;13.492;2022-08-21T02:43:15;16.90;99.90
36212;DHT22;22247;48.586;13.492;2022-08-21T02:45:43;17.00;99.90
36212;DHT22;22247;48.586;13.492;2022-08-21T02:48:15;16.80;99.90
36212;DHT22;22247;48.586;13.492;2022-08-21T02:50:52;16.90;99.90
36212;DHT22;22247;48.586;13.492;2022-08-21T02:53:18;16.90;99.90
36212;DHT22;22247;48.586;13.492;2022-08-21T02:55:46;16.90;99.90
36212;DHT22;22247;48.586;13.492;2022-08-21T02:58:17;16.90;99.90
36212;DHT22;22247;48.586;13.492;2022-08-21T03:00:45;16.90;99.90
36212;DHT22;22247;48.586;13.492;2022-08-21T03:05:40;17.00;99.90
36212;DHT22;22247;48.586;13.492;2022-08-21T03:08:07;17.00;99.90
36212;DHT22;22247;48.586;13.492;2022-08-21T03:10:37;17.00;99.90
36212;DHT22;22247;48.586;13.492;2022-08-21T03:13:05;17.00;99.90
36212;DHT22;22247;48.586;13.492;2022-08-21T03:15:33;17.00;99.90
36212;DHT22;22247;48.586;13.492;2022-08-21T03:18:02;17.40;99.90
36212;DHT22;22247;48.586;13.492;2022-08-21T03:20:29;17.40;99.90
36212;DHT22;22247;48.586;13.492;2022-08-21T03:22:56;17.10;99.90
36212;DHT22;22247;48.586;13.492;2022-08-21T03:25:26;17.10;99.90
36212;DHT22;22247;48.586;13.492;2022-08-21T03:27:52;17.10;99.90
36212;DHT22;22247;48.586;13.492;2022-08-21T03:30:19;17.10;99.90
36212;DHT22;22247;48.586;13.492;2022-08-21T03:32:48;17.20;99.90
36212;DHT22;22247;48.586;13.492;2022-08-21T03:35:19;17.20;99.90
36212;DHT22;22247;48.586;13.492;2022-08-21T03:37:46;17.20;99.90
36212;DHT22;22247;48.586;13.492;2022-08-21T03:40:18;17.10;99.90
36212;DHT22;22247;48.586;13.492;2022-08-21T03:42:44;17.10;99.90
36212;DHT22;22247;48.586;13.492;2022-08-21T03:45:16;17.30;99.90
36212;DHT22;22247;48.586;13.492;2022-08-21T03:47:57;17.40;99.90
36212;DHT22;22247;48.586;13.492;2022-08-21T03:50:25;17.20;99.90
36212;DHT22;22247;48.586;13.492;2022-08-21T03:52:59;17.20;99.90
36212;DHT22;22247;48.586;13.492;2022-08-21T03:55:25;17.40;99.90
36212;DHT22;22247;48.586;13.492;2022-08-21T03:57:51;17.10;99.90
36212;DHT22;22247;48.586;13.492;2022-08-21T04:00:20;17.70;99.90
36212;DHT22;22247;48.586;13.492;2022-08-21T04:02:48;17.30;99.90
36212;DHT22;22247;48.586;13.492;2022-08-21T04:05:15;17.20;99.90
36212;DHT22;22247;48.586;13.492;2022-08-21T04:07:55;17.20;99.90
36212;DHT22;22247;48.586;13.492;2022-08-21T04:10:23;17.20;99.90
36212;DHT22;22247;48.586;13.492;2022-08-21T04:12:52;17.20;99.90
36212;DHT22;22247;48.586;13.492;2022-08-21T04:15:21;17.20;99.90
36212;DHT22;22247;48.586;13.492;2022-08-21T04:17:49;17.20;99.90
36212;DHT22;22247;48.586;13.492;2022-08-21T04:20:19;17.10;99.90
36212;DHT22;22247;48.586;13.492;2022-08-21T04:22:48;17.20;99.90
36212;DHT22;22247;48.586;13.492;2022-08-21T04:25:15;17.20;99.90
36212;DHT22;22247;48.586;13.492;2022-08-21T04:27:41;17.90;99.90
36212;DHT22;22247;48.586;13.492;2022-08-21T04:30:08;17.20;99.90
36212;DHT22;22247;48.586;13.492;2022-08-21T04:32:37;17.20;99.90
36212;DHT22;22247;48.586;13.492;2022-08-21T04:35:09;17.20;99.90
36212;DHT22;22247;48.586;13.492;2022-08-21T04:37:38;17.20;99.90
36212;DHT22;22247;48.586;13.492;2022-08-21T04:40:05;17.20;99.90
36212;DHT22;22247;48.586;13.492;2022-08-21T04:45:00;17.20;99.90
36212;DHT22;22247;48.586;13.492;2022-08-21T04:47:26;17.60;99.90
36212;DHT22;22247;48.586;13.492;2022-08-21T04:49:52;17.20;99.90
36212;DHT22;22247;48.586;13.492;2022-08-21T04:52:21;17.20;99.90
36212;DHT22;22247;48.586;13.492;2022-08-21T04:54:51;17.30;99.90
36212;DHT22;22247;48.586;13.492;2022-08-21T04:57:22;17.20;99.90
36212;DHT22;22247;48.586;13.492;2022-08-21T04:59:49;17.30;99.90
36212;DHT22;22247;48.586;13.492;2022-08-21T05:02:19;17.30;99.90
36212;DHT22;22247;48.586;13.492;2022-08-21T05:04:54;17.30;99.90
36212;DHT22;22247;48.586;13.492;2022-08-21T05:07:27;17.30;99.90
36212;DHT22;22247;48.586;13.492;2022-08-21T05:09:53;17.10;99.90
36212;DHT22;22247;48.586;13.492;2022-08-21T05:12:19;17.30;99.90
36212;DHT22;22247;48.586;13.492;2022-08-21T05:14:47;17.30;99.90
36212;DHT22;22247;48.586;13.492;2022-08-21T05:17:13;17.20;99.90
36212;DHT22;22247;48.586;13.492;2022-08-21T05:19:39;17.20;99.90
36212;DHT22;22247;48.586;13.492;2022-08-21T05:22:05;17.30;99.90
36212;DHT22;22247;48.586;13.492;2022-08-21T05:24:31;17.30;99.90
36212;DHT22;22247;48.586;13.492;2022-08-21T05:27:00;17.30;99.90
36212;DHT22;22247;48.586;13.492;2022-08-21T05:29:26;17.50;99.90
36212;DHT22;22247;48.586;13.492;2022-08-21T05:34:22;17.40;99.90
36212;DHT22;22247;48.586;13.492;2022-08-21T05:39:16;17.10;99.90
36212;DHT22;22247;48.586;13.492;2022-08-21T05:41:42;17.30;99.90
36212;DHT22;22247;48.586;13.492;2022-08-21T05:44:10;17.40;99.90
36212;DHT22;22247;48.586;13.492;2022-08-21T05:46:38;17.50;99.90
36212;DHT22;22247;48.586;13.492;2022-08-21T05:54:01;17.70;99.90
36212;DHT22;22247;48.586;13.492;2022-08-21T05:56:27;18.00;99.90
36212;DHT22;22247;48.586;13.492;2022-08-21T05:58:55;17.70;99.90
36212;DHT22;22247;48.586;13.492;2022-08-21T06:01:23;17.90;99.90
36212;DHT22;22247;48.586;13.492;2022-08-21T06:03:49;17.90;99.90
36212;DHT22;22247;48.586;13.492;2022-08-21T06:06:14;17.50;99.90
36212;DHT22;22247;48.586;13.492;2022-08-21T06:08:41;18.10;99.90
36212;DHT22;22247;48.586;13.492;2022-08-21T06:11:09;17.70;99.90
36212;DHT22;22247;48.586;13.492;2022-08-21T06:13:36;17.80;99.90
36212;DHT22;22247;48.586;13.492;2022-08-21T06:18:27;18.00;99.90
36212;DHT22;22247;48.586;13.492;2022-08-21T06:20:53;17.80;99.90
36212;DHT22;22247;48.586;13.492;2022-08-21T06:23:19;17.80;99.90
36212;DHT22;22247;48.586;13.492;2022-08-21T06:25:44;17.90;99.90
36212;DHT22;22247;48.586;13.492;2022-08-21T06:30:39;17.80;99.90
36212;DHT22;22247;48.586;13.492;2022-08-21T06:33:05;17.90;99.90
36212;DHT22;22247;48.586;13.492;2022-08-21T06:35:32;17.90;99.90
36212;DHT22;22247;48.586;13.492;2022-08-21T06:37:58;17.80;99.90
36212;DHT22;22247;48.586;13.492;2022-08-21T06:40:26;17.90;99.90
36212;DHT22;22247;48.586;13.492;2022-08-21T06:42:53;18.10;99.90
36212;DHT22;22247;48.586;13.492;2022-08-21T06:45:20;18.30;99.90
36212;DHT22;22247;48.586;13.492;2022-08-21T06:47:45;18.00;99.90
36212;DHT22;22247;48.586;13.492;2022-08-21T06:52:40;18.00;99.90
36212;DHT22;22247;48.586;13.492;2022-08-21T06:55:10;18.30;99.90
36212;DHT22;22247;48.586;13.492;2022-08-21T06:57:38;18.10;99.90
36212;DHT22;22247;48.586;13.492;2022-08-21T07:00:05;18.40;99.90
36212;DHT22;22247;48.586;13.492;2022-08-21T07:07:29;18.10;99.90
36212;DHT22;22247;48.586;13.492;2022-08-21T07:12:23;18.20;99.90
36212;DHT22;22247;48.586;13.492;2022-08-21T07:14:49;18.50;99.90
36212;DHT22;22247;48.586;13.492;2022-08-21T07:17:17;18.40;99.90
36212;DHT22;22247;48.586;13.492;2022-08-21T07:22:08;18.60;99.90
36212;DHT22;22247;48.586;13.492;2022-08-21T07:24:36;18.50;99.90
36212;DHT22;22247;48.586;13.492;2022-08-21T07:27:07;18.40;99.90
36212;DHT22;22247;48.586;13.492;2022-08-21T07:29:34;18.30;99.90
36212;DHT22;22247;48.586;13.492;2022-08-21T07:32:03;18.30;99.90
36212;DHT22;22247;48.586;13.492;2022-08-21T07:34:33;18.30;99.90
36212;DHT22;22247;48.586;13.492;2022-08-21T07:36:59;18.40;99.90
36212;DHT22;22247;48.586;13.492;2022-08-21T07:39:25;18.30;99.90
36212;DHT22;22247;48.586;13.492;2022-08-21T07:41:55;18.40;99.90
36212;DHT22;22247;48.586;13.492;2022-08-21T07:44:23;18.50;99.90
36212;DHT22;22247;48.586;13.492;2022-08-21T07:46:48;18.60;99.90
36212;DHT22;22247;48.586;13.492;2022-08-21T07:49:14;18.10;99.90
36212;DHT22;22247;48.586;13.492;2022-08-21T07:51:40;18.60;99.90
36212;DHT22;22247;48.586;13.492;2022-08-21T07:54:05;18.50;99.90
36212;DHT22;22247;48.586;13.492;2022-08-21T07:56:31;18.50;99.90
36212;DHT22;22247;48.586;13.492;2022-08-21T07:59:02;18.50;99.90
36212;DHT22;22247;48.586;13.492;2022-08-21T08:01:28;18.60;99.90
36212;DHT22;22247;48.586;13.492;2022-08-21T08:03:56;18.60;99.90
36212;DHT22;22247;48.586;13.492;2022-08-21T08:08:50;19.00;99.90
36212;DHT22;22247;48.586;13.492;2022-08-21T08:11:16;19.00;99.90
36212;DHT22;22247;48.586;13.492;2022-08-21T08:13:47;19.20;99.90
36212;DHT22;22247;48.586;13.492;2022-08-21T08:16:17;18.80;99.90
36212;DHT22;22247;48.586;13.492;2022-08-21T08:18:45;18.90;99.90
36212;DHT22;22247;48.586;13.492;2022-08-21T08:21:12;18.60;99.90
36212;DHT22;22247;48.586;13.492;2022-08-21T08:23:38;18.60;99.90
36212;DHT22;22247;48.586;13.492;2022-08-21T08:26:08;19.00;99.90
36212;DHT22;22247;48.586;13.492;2022-08-21T08:28:36;18.80;99.90
36212;DHT22;22247;48.586;13.492;2022-08-21T08:31:04;18.90;99.90
36212;DHT22;22247;48.586;13.492;2022-08-21T08:33:30;19.30;99.90
36212;DHT22;22247;48.586;13.492;2022-08-21T08:38:24;18.80;99.90
36212;DHT22;22247;48.586;13.492;2022-08-21T08:43:37;19.20;99.90
36212;DHT22;22247;48.586;13.492;2022-08-21T08:46:09;19.00;99.90
36212;DHT22;22247;48.586;13.492;2022-08-21T08:51:08;19.30;99.90
36212;DHT22;22247;48.586;13.492;2022-08-21T08:53:59;19.50;99.90
36212;DHT22;22247;48.586;13.492;2022-08-21T08:56:30;20.10;99.90
36212;DHT22;22247;48.586;13.492;2022-08-21T08:59:01;20.20;99.90
36212;DHT22;22247;48.586;13.492;2022-08-21T09:01:27;19.60;99.90
36212;DHT22;22247;48.586;13.492;2022-08-21T09:03:56;20.00;99.90
36212;DHT22;22247;48.586;13.492;2022-08-21T09:17:10;20.00;99.90
36212;DHT22;22247;48.586;13.492;2022-08-21T09:27:44;20.50;99.90
36212;DHT22;22247;48.586;13.492;2022-08-21T09:30:11;20.70;99.90
36212;DHT22;22247;48.586;13.492;2022-08-21T09:32:42;20.90;99.90
36212;DHT22;22247;48.586;13.492;2022-08-21T09:35:15;20.70;99.90
36212;DHT22;22247;48.586;13.492;2022-08-21T09:42:59;21.00;99.90
36212;DHT22;22247;48.586;13.492;2022-08-21T09:45:27;21.30;99.90
36212;DHT22;22247;48.586;13.492;2022-08-21T09:47:56;21.10;99.90
36212;DHT22;22247;48.586;13.492;2022-08-21T09:50:27;21.30;99.90
36212;DHT22;22247;48.586;13.492;2022-08-21T09:53:00;21.90;99.90
36212;DHT22;22247;48.586;13.492;2022-08-21T09:55:33;21.50;99.90
36212;DHT22;22247;48.586;13.492;2022-08-21T09:58:19;21.40;99.90
36212;DHT22;22247;48.586;13.492;2022-08-21T10:00:58;21.10;99.90
36212;DHT22;22247;48.586;13.492;2022-08-21T10:03:29;21.80;99.90
36212;DHT22;22247;48.586;13.492;2022-08-21T10:06:02;20.90;99.90
36212;DHT22;22247;48.586;13.492;2022-08-21T10:11:12;20.80;99.90
36212;DHT22;22247;48.586;13.492;2022-08-21T10:13:51;21.50;99.90
36212;DHT22;22247;48.586;13.492;2022-08-21T10:20:25;22.50;99.90
36212;DHT22;22247;48.586;13.492;2022-08-21T10:48:06;22.30;99.90
36212;DHT22;22247;48.586;13.492;2022-08-21T10:50:50;22.30;99.90
36212;DHT22;22247;48.586;13.492;2022-08-21T10:53:41;22.50;99.90
36212;DHT22;22247;48.586;13.492;2022-08-21T10:56:24;22.90;99.90
36212;DHT22;22247;48.586;13.492;2022-08-21T10:59:04;23.10;99.90
36212;DHT22;22247;48.586;13.492;2022-08-21T11:04:30;22.60;99.90
36212;DHT22;22247;48.586;13.492;2022-08-21T11:07:18;22.90;99.90
36212;DHT22;22247;48.586;13.492;2022-08-21T11:09:51;22.60;99.90
36212;DHT22;22247;48.586;13.492;2022-08-21T11:12:48;22.60;99.90
36212;DHT22;22247;48.586;13.492;2022-08-21T11:20:51;22.60;99.90
36212;DHT22;22247;48.586;13.492;2022-08-21T11:23:47;22.70;99.90
36212;DHT22;22247;48.586;13.492;2022-08-21T11:26:29;22.20;99.90
36212;DHT22;22247;48.586;13.492;2022-08-21T11:29:01;22.70;99.90
36212;DHT22;22247;48.586;13.492;2022-08-21T11:31:53;22.50;99.90
36212;DHT22;22247;48.586;13.492;2022-08-21T11:35:13;23.20;99.90
36212;DHT22;22247;48.586;13.492;2022-08-21T11:43:46;24.10;99.90
36212;DHT22;22247;48.586;13.492;2022-08-21T11:57:33;24.50;99.90
36212;DHT22;22247;48.586;13.492;2022-08-21T12:00:29;24.70;99.90
36212;DHT22;22247;48.586;13.492;2022-08-21T12:03:14;23.90;99.90
36212;DHT22;22247;48.586;13.492;2022-08-21T12:05:45;22.90;99.90
36212;DHT22;22247;48.586;13.492;2022-08-21T12:13:30;21.20;99.90
36212;DHT22;22247;48.586;13.492;2022-08-21T12:16:32;21.20;99.90
36212;DHT22;22247;48.586;13.492;2022-08-21T12:19:06;20.30;99.90
36212;DHT22;22247;48.586;13.492;2022-08-21T12:24:39;20.10;99.90
36212;DHT22;22247;48.586;13.492;2022-08-21T12:30:18;20.10;99.90
36212;DHT22;22247;48.586;13.492;2022-08-21T12:33:02;20.10;99.90
36212;DHT22;22247;48.586;13.492;2022-08-21T12:35:47;19.50;99.90
36212;DHT22;22247;48.586;13.492;2022-08-21T12:38:30;19.70;99.90
36212;DHT22;22247;48.586;13.492;2022-08-21T12:41:07;19.60;99.90
36212;DHT22;22247;48.586;13.492;2022-08-21T12:43:39;20.00;99.90
36212;DHT22;22247;48.586;13.492;2022-08-21T12:46:06;19.70;99.90
36212;DHT22;22247;48.586;13.492;2022-08-21T12:48:44;19.80;99.90
36212;DHT22;22247;48.586;13.492;2022-08-21T12:51:31;19.90;99.90
36212;DHT22;22247;48.586;13.492;2022-08-21T12:53:59;19.70;99.90
36212;DHT22;22247;48.586;13.492;2022-08-21T12:56:32;19.30;99.90
36212;DHT22;22247;48.586;13.492;2022-08-21T12:59:10;19.30;99.90
36212;DHT22;22247;48.586;13.492;2022-08-21T13:01:46;19.10;99.90
36212;DHT22;22247;48.586;13.492;2022-08-21T13:04:17;19.20;99.90
36212;DHT22;22247;48.586;13.492;2022-08-21T13:06:49;19.10;99.90
36212;DHT22;22247;48.586;13.492;2022-08-21T13:09:19;19.30;99.90
36212;DHT22;22247;48.586;13.492;2022-08-21T13:11:49;19.60;99.90
36212;DHT22;22247;48.586;13.492;2022-08-21T13:14:31;20.30;99.90
36212;DHT22;22247;48.586;13.492;2022-08-21T13:17:03;20.60;99.90
36212;DHT22;22247;48.586;13.492;2022-08-21T13:22:01;20.90;99.90
36212;DHT22;22247;48.586;13.492;2022-08-21T13:24:29;20.90;99.90
36212;DHT22;22247;48.586;13.492;2022-08-21T13:26:55;20.70;99.90
36212;DHT22;22247;48.586;13.492;2022-08-21T13:29:28;20.70;99.90
36212;DHT22;22247;48.586;13.492;2022-08-21T13:32:03;21.00;99.90
36212;DHT22;22247;48.586;13.492;2022-08-21T13:34:33;20.80;99.90
36212;DHT22;22247;48.586;13.492;2022-08-21T13:37:04;21.10;99.90
36212;DHT22;22247;48.586;13.492;2022-08-21T13:39:33;21.10;99.90
36212;DHT22;22247;48.586;13.492;2022-08-21T13:42:01;21.70;99.90
36212;DHT22;22247;48.586;13.492;2022-08-21T13:46:59;21.20;99.90
36212;DHT22;22247;48.586;13.492;2022-08-21T13:49:34;20.80;99.90
36212;DHT22;22247;48.586;13.492;2022-08-21T13:52:04;20.90;99.90
36212;DHT22;22247;48.586;13.492;2022-08-21T13:54:38;21.00;99.90
36212;DHT22;22247;48.586;13.492;2022-08-21T13:57:25;20.60;99.90
36212;DHT22;22247;48.586;13.492;2022-08-21T13:59:51;20.80;99.90
36212;DHT22;22247;48.586;13.492;2022-08-21T14:02:23;20.80;99.90
36212;DHT22;22247;48.586;13.492;2022-08-21T14:07:20;21.10;99.90
36212;DHT22;22247;48.586;13.492;2022-08-21T14:09:52;21.40;99.90
36212;DHT22;22247;48.586;13.492;2022-08-21T14:12:28;21.50;99.90
36212;DHT22;22247;48.586;13.492;2022-08-21T14:14:58;22.30;99.90
36212;DHT22;22247;48.586;13.492;2022-08-21T14:17:37;22.00;99.90
36212;DHT22;22247;48.586;13.492;2022-08-21T14:20:08;22.20;99.90
36212;DHT22;22247;48.586;13.492;2022-08-21T14:22:46;22.30;99.90
36212;DHT22;22247;48.586;13.492;2022-08-21T14:27:55;22.30;99.90
36212;DHT22;22247;48.586;13.492;2022-08-21T14:32:47;24.10;99.90
36212;DHT22;22247;48.586;13.492;2022-08-21T14:35:15;24.40;99.90
36212;DHT22;22247;48.586;13.492;2022-08-21T14:37:44;24.90;99.90
36212;DHT22;22247;48.586;13.492;2022-08-21T14:40:11;25.40;99.90
36212;DHT22;22247;48.586;13.492;2022-08-21T14:42:37;25.30;99.90
36212;DHT22;22247;48.586;13.492;2022-08-21T14:45:15;25.40;99.90
36212;DHT22;22247;48.586;13.492;2022-08-21T14:50:08;25.10;99.90
36212;DHT22;22247;48.586;13.492;2022-08-21T14:52:36;24.70;99.90
36212;DHT22;22247;48.586;13.492;2022-08-21T14:55:03;24.30;99.90
36212;DHT22;22247;48.586;13.492;2022-08-21T14:57:30;23.70;99.90
36212;DHT22;22247;48.586;13.492;2022-08-21T15:00:03;23.10;99.90
36212;DHT22;22247;48.586;13.492;2022-08-21T15:02:31;23.10;99.90
36212;DHT22;22247;48.586;13.492;2022-08-21T15:09:51;22.60;99.90
36212;DHT22;22247;48.586;13.492;2022-08-21T15:14:46;22.10;99.90
36212;DHT22;22247;48.586;13.492;2022-08-21T15:22:07;22.00;99.90
36212;DHT22;22247;48.586;13.492;2022-08-21T15:27:01;21.90;99.90
36212;DHT22;22247;48.586;13.492;2022-08-21T15:29:30;22.00;99.90
36212;DHT22;22247;48.586;13.492;2022-08-21T15:32:24;22.20;99.90
36212;DHT22;22247;48.586;13.492;2022-08-21T15:34:50;21.70;99.90
36212;DHT22;22247;48.586;13.492;2022-08-21T15:37:19;21.80;99.90
36212;DHT22;22247;48.586;13.492;2022-08-21T15:39:44;22.10;99.90
36212;DHT22;22247;48.586;13.492;2022-08-21T15:42:11;22.30;99.90
36212;DHT22;22247;48.586;13.492;2022-08-21T15:44:41;22.00;99.90
36212;DHT22;22247;48.586;13.492;2022-08-21T15:47:13;21.80;99.90
36212;DHT22;22247;48.586;13.492;2022-08-21T15:49:40;21.70;99.90
36212;DHT22;22247;48.586;13.492;2022-08-21T15:52:13;21.80;99.90
36212;DHT22;22247;48.586;13.492;2022-08-21T15:54:40;21.50;99.90
36212;DHT22;22247;48.586;13.492;2022-08-21T15:57:09;21.90;99.90
36212;DHT22;22247;48.586;13.492;2022-08-21T15:59:43;22.40;99.90
36212;DHT22;22247;48.586;13.492;2022-08-21T16:02:15;22.50;99.90
36212;DHT22;22247;48.586;13.492;2022-08-21T16:07:14;23.20;99.90
36212;DHT22;22247;48.586;13.492;2022-08-21T16:09:41;22.70;99.90
36212;DHT22;22247;48.586;13.492;2022-08-21T16:12:12;22.60;99.90
36212;DHT22;22247;48.586;13.492;2022-08-21T16:14:42;22.70;99.90
36212;DHT22;22247;48.586;13.492;2022-08-21T16:17:11;23.20;99.90
36212;DHT22;22247;48.586;13.492;2022-08-21T16:19:39;22.70;99.90
36212;DHT22;22247;48.586;13.492;2022-08-21T16:24:31;22.80;99.90
36212;DHT22;22247;48.586;13.492;2022-08-21T16:26:59;23.60;99.90
36212;DHT22;22247;48.586;13.492;2022-08-21T16:29:31;23.70;99.90
36212;DHT22;22247;48.586;13.492;2022-08-21T16:34:27;25.60;99.90
36212;DHT22;22247;48.586;13.492;2022-08-21T16:41:47;26.00;99.90
36212;DHT22;22247;48.586;13.492;2022-08-21T16:44:16;26.10;99.90
36212;DHT22;22247;48.586;13.492;2022-08-21T16:49:12;26.00;99.90
36212;DHT22;22247;48.586;13.492;2022-08-21T16:51:38;26.10;99.90
36212;DHT22;22247;48.586;13.492;2022-08-21T16:56:31;26.20;99.90
36212;DHT22;22247;48.586;13.492;2022-08-21T16:59:04;26.40;99.90
36212;DHT22;22247;48.586;13.492;2022-08-21T17:01:34;25.90;99.90
36212;DHT22;22247;48.586;13.492;2022-08-21T17:04:03;26.10;99.90
36212;DHT22;22247;48.586;13.492;2022-08-21T17:06:29;25.80;99.90
36212;DHT22;22247;48.586;13.492;2022-08-21T17:08:58;25.50;99.90
36212;DHT22;22247;48.586;13.492;2022-08-21T17:11:30;24.70;99.90
36212;DHT22;22247;48.586;13.492;2022-08-21T17:13:57;23.30;99.90
36212;DHT22;22247;48.586;13.492;2022-08-21T17:16:24;23.40;99.90
36212;DHT22;22247;48.586;13.492;2022-08-21T17:18:56;23.50;99.90
36212;DHT22;22247;48.586;13.492;2022-08-21T17:23:50;23.90;99.90
36212;DHT22;22247;48.586;13.492;2022-08-21T17:28:46;23.10;99.90
36212;DHT22;22247;48.586;13.492;2022-08-21T17:31:14;23.20;99.90
36212;DHT22;22247;48.586;13.492;2022-08-21T17:33:46;22.20;99.90
36212;DHT22;22247;48.586;13.492;2022-08-21T17:36:24;20.80;99.90
36212;DHT22;22247;48.586;13.492;2022-08-21T17:38:52;20.90;99.90
36212;DHT22;22247;48.586;13.492;2022-08-21T17:41:21;20.60;99.90
36212;DHT22;22247;48.586;13.492;2022-08-21T17:46:19;20.10;99.90
36212;DHT22;22247;48.586;13.492;2022-08-21T17:51:16;20.10;99.90
36212;DHT22;22247;48.586;13.492;2022-08-21T17:56:10;19.80;99.90
36212;DHT22;22247;48.586;13.492;2022-08-21T18:01:08;19.60;99.90
36212;DHT22;22247;48.586;13.492;2022-08-21T18:03:37;19.60;99.90
36212;DHT22;22247;48.586;13.492;2022-08-21T18:06:03;19.60;99.90
36212;DHT22;22247;48.586;13.492;2022-08-21T18:10:58;19.50;99.90
36212;DHT22;22247;48.586;13.492;2022-08-21T18:13:33;19.40;99.90
36212;DHT22;22247;48.586;13.492;2022-08-21T18:16:00;19.40;99.90
36212;DHT22;22247;48.586;13.492;2022-08-21T18:18:28;19.40;99.90
36212;DHT22;22247;48.586;13.492;2022-08-21T18:25:56;19.20;99.90
36212;DHT22;22247;48.586;13.492;2022-08-21T18:28:24;19.20;99.90
36212;DHT22;22247;48.586;13.492;2022-08-21T18:30:54;19.20;99.90
36212;DHT22;22247;48.586;13.492;2022-08-21T18:33:25;19.00;99.90
36212;DHT22;22247;48.586;13.492;2022-08-21T18:35:50;19.00;99.90
36212;DHT22;22247;48.586;13.492;2022-08-21T18:38:16;18.90;99.90
36212;DHT22;22247;48.586;13.492;2022-08-21T18:40:50;18.80;99.90
36212;DHT22;22247;48.586;13.492;2022-08-21T18:48:12;18.80;99.90
36212;DHT22;22247;48.586;13.492;2022-08-21T18:50:42;18.80;99.90
36212;DHT22;22247;48.586;13.492;2022-08-21T18:53:10;18.70;99.90
36212;DHT22;22247;48.586;13.492;2022-08-21T18:55:37;18.70;99.90
36212;DHT22;22247;48.586;13.492;2022-08-21T18:58:06;18.70;99.90
36212;DHT22;22247;48.586;13.492;2022-08-21T19:00:38;18.80;99.90
36212;DHT22;22247;48.586;13.492;2022-08-21T19:03:07;18.80;99.90
36212;DHT22;22247;48.586;13.492;2022-08-21T19:05:32;18.80;99.90
36212;DHT22;22247;48.586;13.492;2022-08-21T19:08:03;18.70;99.90
36212;DHT22;22247;48.586;13.492;2022-08-21T19:10:33;18.70;99.90